Flight Track Log - Related Links

Times and Time Zones

All times are in EDT time to prevent confusion due to time zone crossing. See the ZS-SNC flight status page for this flight to view local times or setup timezone preferences in your user account.

Time Position Orientation Groundspeed Altitude Reporting Facility
EDT Latitude Longitude Course Direction KTS MPH feet Rate Location/Type
Sat 01:54:32 PM -26.0990 28.2490 14° North 202 232 5,700  Level FlightAware ADS-B
Sat 01:55:02 PM -26.0700 28.2590 17° North 215 247 6,500 1,527 Climbing FlightAware ADS-B
Sat 01:55:27 PM -26.0450 28.2660 14° North 217 250 7,100 825 Climbing FlightAware ADS-B
Sat 01:56:22 PM -25.9880 28.2530 348° North 252 290 7,600 565 Climbing FlightAware ADS-B
Sat 01:56:52 PM -25.9490 28.2440 348° North 283 326 7,900 764 Climbing FlightAware ADS-B
Sat 01:57:17 PM -25.9140 28.2360 348° North 305 351 8,300 1,091 Climbing FlightAware ADS-B
Sat 01:57:47 PM -25.8760 28.2270 348° North 320 368 8,900 1,840 Climbing FlightAware ADS-B
Sat 01:58:32 PM -25.8070 28.2110 348° North 320 368 10,600 1,624 Climbing FlightAware ADS-B
Sat 01:59:12 PM -25.7460 28.1970 348° North 352 405 11,200 900 Climbing FlightAware ADS-B
Sat 01:59:52 PM -25.6770 28.1820 349° North 380 437 11,800 1,059 Climbing FlightAware ADS-B
Sat 02:00:37 PM -25.6030 28.1640 348° North 398 458 12,700 1,200 Climbing FlightAware ADS-B
Sat 02:01:17 PM -25.5300 28.1470 348° North 410 472 13,500 1,482 Climbing FlightAware ADS-B
Sat 02:02:02 PM -25.4430 28.1270 348° North 408 470 14,800 1,624 Climbing FlightAware ADS-B
Sat 02:02:42 PM -25.3720 28.1110 348° North 412 474 15,800 1,425 Climbing FlightAware ADS-B
Sat 02:03:22 PM -25.2920 28.0930 349° North 417 480 16,700 1,200 Climbing FlightAware ADS-B
Sat 02:04:07 PM -25.2110 28.0740 348° North 424 488 17,500 1,200 Climbing FlightAware ADS-B
Sat 02:04:47 PM -25.1290 28.0560 349° North 430 495 18,400 1,482 Climbing FlightAware ADS-B
Sat 02:05:32 PM -25.0380 28.0350 348° North 426 490 19,600 1,341 Climbing FlightAware ADS-B
Sat 02:06:12 PM -24.9640 28.0180 348° North 432 497 20,300 960 Climbing FlightAware ADS-B
Sat 02:06:47 PM -24.8980 28.0040 349° North 438 504 20,800 988 Climbing FlightAware ADS-B
Sat 02:07:37 PM -24.7930 27.9800 348° North 446 513 21,700 733 Climbing FlightAware ADS-B
Sat 02:08:17 PM -24.7140 27.9620 348° North 447 514 21,900 150 Climbing FlightAware ADS-B
Sat 02:08:57 PM -24.6450 27.9460 348° North 447 514 21,900 1,020 Level FlightAware ADS-B
Sat 02:09:57 PM -24.7140 27.9620 168° South 447 514 23,600 1,020 Climbing FlightAware ADS-B
Sat 02:10:37 PM -24.6450 27.9460 348° North 447 514 23,600  Level FlightAware ADS-B
Sat 02:11:17 PM -24.5760 27.9290 347° North 447 514 23,600  Level FlightAware ADS-B
Sat 02:12:07 PM -24.4900 27.9090 348° North 447 514 23,600  Level FlightAware ADS-B
Sat 02:12:47 PM -24.4210 27.8930 348° North 447 514 23,600  Level FlightAware ADS-B
Sat 02:13:27 PM -24.3530 27.8770 348° North 447 514 23,600 28 Level FlightAware ADS-B
Sat 02:16:00 PM -24.0363 27.7992 347° North  Level Estimated
Sat 02:17:00 PM -23.9121 27.7688 347° North  Level Estimated
Sat 02:18:00 PM -23.7879 27.7385 347° North  Level Estimated
Sat 02:19:00 PM -23.6637 27.7082 347° North  Level Estimated
Sat 02:20:00 PM -23.5395 27.6780 347° North  Level Estimated
Sat 02:21:00 PM -23.4152 27.6478 347° North  Level Estimated
Sat 02:22:00 PM -23.2910 27.6177 347° North  Level Estimated
Sat 02:23:00 PM -23.1668 27.5877 347° North  Level Estimated
Sat 02:24:00 PM -23.0425 27.5576 347° North  Level Estimated
Sat 02:25:00 PM -22.9183 27.5277 347° North  Level Estimated
Sat 02:26:00 PM -22.7940 27.4978 347° North  Level Estimated
Sat 02:27:00 PM -22.6698 27.4680 348° North  Level Estimated
Sat 02:28:00 PM -22.5455 27.4382 348° North  Level Estimated
Sat 02:29:00 PM -22.4212 27.4085 348° North  Level Estimated
Sat 02:30:00 PM -22.2969 27.3788 348° North  Level Estimated
Sat 02:31:00 PM -22.1727 27.3492 348° North  Level Estimated
Sat 02:32:00 PM -22.0484 27.3196 348° North  Level Estimated
Sat 02:33:00 PM -21.9241 27.2901 348° North  Level Estimated
Sat 02:34:00 PM -21.7998 27.2606 348° North  Level Estimated
Sat 02:35:00 PM -21.6755 27.2312 348° North  Level Estimated
Sat 02:36:00 PM -21.5512 27.2019 348° North  Level Estimated
Sat 02:37:00 PM -21.4269 27.1726 348° North  Level Estimated
Sat 02:38:00 PM -21.3025 27.1433 348° North  Level Estimated
Sat 02:39:00 PM -21.1782 27.1141 348° North  Level Estimated
Sat 02:40:00 PM -21.0539 27.0849 348° North  Level Estimated
Sat 02:41:00 PM -20.9296 27.0558 348° North  Level Estimated
Sat 02:42:00 PM -20.8052 27.0267 348° North  Level Estimated
Sat 02:43:00 PM -20.6809 26.9977 348° North  Level Estimated
Sat 02:44:00 PM -20.5565 26.9688 348° North  Level Estimated
Sat 02:45:00 PM -20.4322 26.9398 348° North  Level Estimated
Sat 02:46:00 PM -20.3078 26.9109 348° North  Level Estimated
Sat 02:47:00 PM -20.1835 26.8821 348° North  Level Estimated
Sat 02:48:00 PM -20.0591 26.8533 348° North  Level Estimated
Sat 02:49:00 PM -19.9347 26.8246 348° North  Level Estimated
Sat 02:50:00 PM -19.8104 26.7959 348° North  Level Estimated
Sat 02:51:00 PM -19.6860 26.7672 348° North  Level Estimated
Sat 02:52:00 PM -19.5616 26.7386 348° North  Level Estimated
Sat 02:53:00 PM -19.4372 26.7101 348° North  Level Estimated
Sat 02:54:00 PM -19.3128 26.6815 348° North  Level Estimated
Sat 02:55:00 PM -19.1884 26.6531 348° North  Level Estimated
Sat 02:56:00 PM -19.0640 26.6246 348° North  Level Estimated
Sat 02:57:00 PM -18.9396 26.5963 348° North  Level Estimated
Sat 02:58:00 PM -18.8152 26.5679 348° North  Level Estimated
Sat 02:59:00 PM -18.6908 26.5396 348° North  Level Estimated
Sat 03:00:00 PM -18.5663 26.5114 348° North  Level Estimated
Sat 03:01:00 PM -18.4419 26.4831 348° North  Level Estimated
Sat 03:02:00 PM -18.3175 26.4550 348° North  Level Estimated
Sat 03:03:00 PM -18.1931 26.4268 348° North  Level Estimated
Sat 03:04:00 PM -18.0686 26.3987 348° North  Level Estimated
Sat 03:05:00 PM -17.9442 26.3706 348° North  Level Estimated
Sat 03:06:00 PM -17.8197 26.3426 348° North  Level Estimated
Sat 03:07:00 PM -17.6953 26.3146 348° North  Level Estimated
Sat 03:08:00 PM -17.5708 26.2867 348° North  Level Estimated
Sat 03:09:00 PM -17.4464 26.2588 348° North  Level Estimated
Sat 03:10:00 PM -17.3219 26.2309 348° North  Level Estimated
Sat 03:11:00 PM -17.1975 26.2031 348° North  Level Estimated
Sat 03:12:00 PM -17.0730 26.1753 348° North  Level Estimated
Sat 03:13:00 PM -16.9485 26.1476 348° North  Level Estimated
Sat 03:14:00 PM -16.8240 26.1198 348° North  Level Estimated
Sat 03:15:00 PM -16.6996 26.0922 348° North  Level Estimated
Sat 03:16:00 PM -16.5751 26.0645 348° North  Level Estimated
Sat 03:17:00 PM -16.4506 26.0369 348° North  Level Estimated
Sat 03:18:00 PM -16.3261 26.0093 348° North  Level Estimated
Sat 03:19:00 PM -16.2016 25.9818 348° North  Level Estimated
Sat 03:20:00 PM -16.0771 25.9543 348° North  Level Estimated
Sat 03:21:00 PM -15.9526 25.9268 348° North  Level Estimated
Sat 03:22:00 PM -15.8281 25.8994 348° North  Level Estimated
Sat 03:23:00 PM -15.7036 25.8720 348° North  Level Estimated
Sat 03:24:00 PM -15.5791 25.8446 348° North  Level Estimated
Sat 03:25:00 PM -15.4546 25.8173 348° North  Level Estimated
Sat 03:26:00 PM -15.3301 25.7900 348° North  Level Estimated
Sat 03:27:00 PM -15.2055 25.7627 348° North  Level Estimated
Sat 03:28:00 PM -15.0810 25.7355 348° North  Level Estimated
Sat 03:29:00 PM -14.9565 25.7083 348° North  Level Estimated
Sat 03:30:00 PM -14.8320 25.6811 348° North  Level Estimated
Sat 03:31:00 PM -14.7074 25.6539 348° North  Level Estimated
Sat 03:32:00 PM -14.5829 25.6268 348° North  Level Estimated
Sat 03:33:00 PM -14.4584 25.5998 348° North  Level Estimated
Sat 03:34:00 PM -14.3338 25.5727 348° North  Level Estimated
Sat 03:35:00 PM -14.2093 25.5457 348° North  Level Estimated
Sat 03:36:00 PM -14.0847 25.5187 348° North  Level Estimated
Sat 03:37:00 PM -13.9602 25.4917 348° North  Level Estimated
Sat 03:38:00 PM -13.8356 25.4648 348° North  Level Estimated
Sat 03:39:00 PM -13.7110 25.4379 348° North  Level Estimated
Sat 03:40:00 PM -13.5865 25.4110 348° North  Level Estimated
Sat 03:41:00 PM -13.4619 25.3842 348° North  Level Estimated
Sat 03:42:00 PM -13.3373 25.3573 348° North  Level Estimated
Sat 03:43:00 PM -13.2128 25.3306 348° North  Level Estimated
Sat 03:44:00 PM -13.0882 25.3038 348° North  Level Estimated
Sat 03:45:00 PM -12.9636 25.2771 348° North  Level Estimated
Sat 03:46:00 PM -12.8391 25.2504 348° North  Level Estimated
Sat 03:47:00 PM -12.7145 25.2237 348° North  Level Estimated
Sat 03:48:00 PM -12.5899 25.1970 348° North  Level Estimated
Sat 03:49:00 PM -12.4653 25.1704 348° North  Level Estimated
Sat 03:50:00 PM -12.3407 25.1438 348° North  Level Estimated
Sat 03:51:00 PM -12.2161 25.1172 348° North  Level Estimated
Sat 03:52:00 PM -12.0915 25.0906 348° North  Level Estimated
Sat 03:53:00 PM -11.9669 25.0641 348° North  Level Estimated
Sat 03:54:00 PM -11.8423 25.0376 348° North  Level Estimated
Sat 03:55:00 PM -11.7177 25.0111 348° North  Level Estimated
Sat 03:56:00 PM -11.5931 24.9846 348° North  Level Estimated
Sat 03:57:00 PM -11.4685 24.9582 348° North  Level Estimated
Sat 03:58:00 PM -11.3439 24.9318 348° North  Level Estimated
Sat 03:59:00 PM -11.2193 24.9054 348° North  Level Estimated
Sat 04:00:00 PM -11.0947 24.8790 348° North  Level Estimated
Sat 04:01:00 PM -10.9701 24.8527 348° North  Level Estimated
Sat 04:02:00 PM -10.8455 24.8264 348° North  Level Estimated
Sat 04:03:00 PM -10.7208 24.8001 348° North  Level Estimated
Sat 04:04:00 PM -10.5962 24.7738 348° North  Level Estimated
Sat 04:05:00 PM -10.4716 24.7475 348° North  Level Estimated
Sat 04:06:00 PM -10.3470 24.7213 348° North  Level Estimated
Sat 04:07:00 PM -10.2223 24.6951 348° North  Level Estimated
Sat 04:08:00 PM -10.0977 24.6689 348° North  Level Estimated
Sat 04:09:00 PM -9.9731 24.6427 348° North  Level Estimated
Sat 04:10:00 PM -9.8484 24.6166 348° North  Level Estimated
Sat 04:11:00 PM -9.7238 24.5905 348° North  Level Estimated
Sat 04:12:00 PM -9.5992 24.5643 348° North  Level Estimated
Sat 04:13:00 PM -9.4745 24.5382 348° North  Level Estimated
Sat 04:14:00 PM -9.3499 24.5122 348° North  Level Estimated
Sat 04:15:00 PM -9.2252 24.4861 348° North  Level Estimated
Sat 04:16:00 PM -9.1006 24.4601 348° North  Level Estimated
Sat 04:17:00 PM -8.9759 24.4340 348° North  Level Estimated
Sat 04:18:00 PM -8.8513 24.4080 348° North  Level Estimated
Sat 04:19:00 PM -8.7266 24.3820 348° North  Level Estimated
Sat 04:20:00 PM -8.6020 24.3561 348° North  Level Estimated
Sat 04:21:00 PM -8.4773 24.3301 348° North  Level Estimated
Sat 04:22:00 PM -8.3527 24.3042 348° North  Level Estimated
Sat 04:23:00 PM -8.2280 24.2783 348° North  Level Estimated
Sat 04:24:00 PM -8.1033 24.2524 348° North  Level Estimated
Sat 04:25:00 PM -7.9787 24.2265 348° North  Level Estimated
Sat 04:26:00 PM -7.8540 24.2006 348° North  Level Estimated
Sat 04:27:00 PM -7.7294 24.1748 348° North  Level Estimated
Sat 04:28:00 PM -7.6047 24.1489 348° North  Level Estimated
Sat 04:29:00 PM -7.4800 24.1231 348° North  Level Estimated
Sat 04:30:00 PM -7.3554 24.0973 348° North  Level Estimated
Sat 04:31:00 PM -7.2307 24.0715 348° North  Level Estimated
Sat 04:32:00 PM -7.1060 24.0457 348° North  Level Estimated
Sat 04:33:00 PM -6.9813 24.0200 348° North  Level Estimated
Sat 04:34:00 PM -6.8567 23.9942 348° North  Level Estimated
Sat 04:35:00 PM -6.7320 23.9685 348° North  Level Estimated
Sat 04:36:00 PM -6.6073 23.9427 348° North  Level Estimated
Sat 04:37:00 PM -6.4826 23.9170 348° North  Level Estimated
Sat 04:38:00 PM -6.3579 23.8913 348° North  Level Estimated
Sat 04:39:00 PM -6.2333 23.8656 348° North  Level Estimated
Sat 04:40:00 PM -6.1086 23.8400 348° North  Level Estimated
Sat 04:41:00 PM -5.9839 23.8143 348° North  Level Estimated
Sat 04:42:00 PM -5.8592 23.7886 348° North  Level Estimated
Sat 04:43:00 PM -5.7345 23.7630 348° North  Level Estimated
Sat 04:44:00 PM -5.6098 23.7374 348° North  Level Estimated
Sat 04:45:00 PM -5.4851 23.7118 348° North  Level Estimated
Sat 04:46:00 PM -5.3604 23.6861 348° North  Level Estimated
Sat 04:47:00 PM -5.2358 23.6605 348° North  Level Estimated
Sat 04:48:00 PM -5.1111 23.6350 348° North  Level Estimated
Sat 04:49:00 PM -4.9864 23.6094 348° North  Level Estimated
Sat 04:50:00 PM -4.8617 23.5838 348° North  Level Estimated
Sat 04:51:00 PM -4.7370 23.5582 348° North  Level Estimated
Sat 04:52:00 PM -4.6123 23.5327 348° North  Level Estimated
Sat 04:53:00 PM -4.4876 23.5072 348° North  Level Estimated
Sat 04:54:00 PM -4.3629 23.4816 348° North  Level Estimated
Sat 04:55:00 PM -4.2382 23.4561 348° North  Level Estimated
Sat 04:56:00 PM -4.1135 23.4306 348° North  Level Estimated
Sat 04:57:00 PM -3.9888 23.4051 348° North  Level Estimated
Sat 04:58:00 PM -3.8641 23.3796 348° North  Level Estimated
Sat 04:59:00 PM -3.7394 23.3541 348° North  Level Estimated
Sat 05:00:00 PM -3.6147 23.3286 348° North  Level Estimated
Sat 05:01:00 PM -3.4900 23.3031 348° North  Level Estimated
Sat 05:02:00 PM -3.3653 23.2777 348° North  Level Estimated
Sat 05:03:00 PM -3.2406 23.2522 348° North  Level Estimated
Sat 05:04:00 PM -3.1159 23.2267 348° North  Level Estimated
Sat 05:05:00 PM -2.9912 23.2013 348° North  Level Estimated
Sat 05:06:00 PM -2.8665 23.1758 348° North  Level Estimated
Sat 05:07:00 PM -2.7417 23.1504 348° North  Level Estimated
Sat 05:08:00 PM -2.6170 23.1250 348° North  Level Estimated
Sat 05:09:00 PM -2.4923 23.0995 348° North  Level Estimated
Sat 05:10:00 PM -2.3676 23.0741 348° North  Level Estimated
Sat 05:11:00 PM -2.2429 23.0487 348° North  Level Estimated
Sat 05:12:00 PM -2.1182 23.0233 348° North  Level Estimated
Sat 05:13:00 PM -1.9935 22.9979 348° North  Level Estimated
Sat 05:14:00 PM -1.8688 22.9725 348° North  Level Estimated
Sat 05:15:00 PM -1.7441 22.9471 348° North  Level Estimated
Sat 05:16:00 PM -1.6193 22.9216 348° North  Level Estimated
Sat 05:17:00 PM -1.4946 22.8962 348° North  Level Estimated
Sat 05:18:00 PM -1.3699 22.8708 348° North  Level Estimated
Sat 05:19:00 PM -1.2452 22.8455 348° North  Level Estimated
Sat 05:20:00 PM -1.1205 22.8201 348° North  Level Estimated
Sat 05:21:00 PM -0.9958 22.7947 348° North  Level Estimated
Sat 05:22:00 PM -0.8711 22.7693 348° North  Level Estimated
Sat 05:23:00 PM -0.7464 22.7439 348° North  Level Estimated
Sat 05:24:00 PM -0.6217 22.7185 348° North  Level Estimated
Sat 05:25:00 PM -0.4970 22.6931 348° North  Level Estimated
Sat 05:26:00 PM -0.3722 22.6678 348° North  Level Estimated
Sat 05:27:00 PM -0.2475 22.6424 348° North  Level Estimated
Sat 05:28:00 PM -0.1228 22.6170 348° North  Level Estimated
Sat 05:29:00 PM 0.0019 22.5916 348° North  Level Estimated
Sat 05:30:00 PM 0.1266 22.5662 348° North  Level Estimated
Sat 05:31:00 PM 0.2513 22.5409 348° North  Level Estimated
Sat 05:32:00 PM 0.3760 22.5155 348° North  Level Estimated
Sat 05:33:00 PM 0.5007 22.4901 348° North  Level Estimated
Sat 05:34:00 PM 0.6254 22.4647 348° North  Level Estimated
Sat 05:35:00 PM 0.7501 22.4394 348° North  Level Estimated
Sat 05:36:00 PM 0.8748 22.4140 348° North  Level Estimated
Sat 05:37:00 PM 0.9996 22.3886 348° North  Level Estimated
Sat 05:38:00 PM 1.1243 22.3632 348° North  Level Estimated
Sat 05:39:00 PM 1.2490 22.3378 348° North  Level Estimated
Sat 05:40:00 PM 1.3737 22.3124 348° North  Level Estimated
Sat 05:41:00 PM 1.4984 22.2870 348° North  Level Estimated
Sat 05:42:00 PM 1.6231 22.2616 348° North  Level Estimated
Sat 05:43:00 PM 1.7478 22.2362 348° North  Level Estimated
Sat 05:44:00 PM 1.8725 22.2108 348° North  Level Estimated
Sat 05:45:00 PM 1.9972 22.1854 348° North  Level Estimated
Sat 05:46:00 PM 2.1219 22.1600 348° North  Level Estimated
Sat 05:47:00 PM 2.2467 22.1346 348° North  Level Estimated
Sat 05:48:00 PM 2.3714 22.1091 348° North  Level Estimated
Sat 05:49:00 PM 2.4961 22.0837 348° North  Level Estimated
Sat 05:50:00 PM 2.6208 22.0583 348° North  Level Estimated
Sat 05:51:00 PM 2.7455 22.0329 348° North  Level Estimated
Sat 05:52:00 PM 2.8702 22.0074 348° North  Level Estimated
Sat 05:53:00 PM 2.9949 21.9820 348° North  Level Estimated
Sat 05:54:00 PM 3.1196 21.9565 348° North  Level Estimated
Sat 05:55:00 PM 3.2443 21.9310 348° North  Level Estimated
Sat 05:56:00 PM 3.3691 21.9056 348° North  Level Estimated
Sat 05:57:00 PM 3.4938 21.8801 348° North  Level Estimated
Sat 05:58:00 PM 3.6184 21.8546 348° North  Level Estimated
Sat 05:59:00 PM 3.7431 21.8292 348° North  Level Estimated
Sat 06:00:00 PM 3.8679 21.8037 348° North  Level Estimated
Sat 06:01:00 PM 3.9925 21.7782 348° North  Level Estimated
Sat 06:02:00 PM 4.1172 21.7527 348° North  Level Estimated
Sat 06:03:00 PM 4.2420 21.7271 348° North  Level Estimated
Sat 06:04:00 PM 4.3667 21.7016 348° North  Level Estimated
Sat 06:05:00 PM 4.4914 21.6761 348° North  Level Estimated
Sat 06:06:00 PM 4.6160 21.6506 348° North  Level Estimated
Sat 06:07:00 PM 4.7407 21.6250 348° North  Level Estimated
Sat 06:08:00 PM 4.8654 21.5994 348° North  Level Estimated
Sat 06:09:00 PM 4.9901 21.5739 348° North  Level Estimated
Sat 06:10:00 PM 5.1148 21.5483 348° North  Level Estimated
Sat 06:11:00 PM 5.2395 21.5227 348° North  Level Estimated
Sat 06:12:00 PM 5.3642 21.4971 348° North  Level Estimated
Sat 06:13:00 PM 5.4889 21.4715 348° North  Level Estimated
Sat 06:14:00 PM 5.6136 21.4459 348° North  Level Estimated
Sat 06:15:00 PM 5.7383 21.4202 348° North  Level Estimated
Sat 06:16:00 PM 5.8630 21.3946 348° North  Level Estimated
Sat 06:17:00 PM 5.9877 21.3690 348° North  Level Estimated
Sat 06:18:00 PM 6.1123 21.3433 348° North  Level Estimated
Sat 06:19:00 PM 6.2370 21.3176 348° North  Level Estimated
Sat 06:20:00 PM 6.3617 21.2919 348° North  Level Estimated
Sat 06:21:00 PM 6.4864 21.2662 348° North  Level Estimated
Sat 06:22:00 PM 6.6111 21.2405 348° North  Level Estimated
Sat 06:23:00 PM 6.7357 21.2148 348° North  Level Estimated
Sat 06:24:00 PM 6.8604 21.1891 348° North  Level Estimated
Sat 06:25:00 PM 6.9851 21.1633 348° North  Level Estimated
Sat 06:26:00 PM 7.1098 21.1375 348° North  Level Estimated
Sat 06:27:00 PM 7.2344 21.1117 348° North  Level Estimated
Sat 06:28:00 PM 7.3591 21.0860 348° North  Level Estimated
Sat 06:29:00 PM 7.4838 21.0601 348° North  Level Estimated
Sat 06:30:00 PM 7.6084 21.0343 348° North  Level Estimated
Sat 06:31:00 PM 7.7331 21.0085 348° North  Level Estimated
Sat 06:32:00 PM 7.8578 20.9826 348° North  Level Estimated
Sat 06:33:00 PM 7.9825 20.9568 348° North  Level Estimated
Sat 06:34:00 PM 8.1071 20.9309 348° North  Level Estimated
Sat 06:35:00 PM 8.2318 20.9050 348° North  Level Estimated
Sat 06:36:00 PM 8.3564 20.8790 348° North  Level Estimated
Sat 06:37:00 PM 8.4811 20.8531 348° North  Level Estimated
Sat 06:38:00 PM 8.6058 20.8272 348° North  Level Estimated
Sat 06:39:00 PM 8.7304 20.8012 348° North  Level Estimated
Sat 06:40:00 PM 8.8551 20.7752 348° North  Level Estimated
Sat 06:41:00 PM 8.9797 20.7492 348° North  Level Estimated
Sat 06:42:00 PM 9.1044 20.7232 348° North  Level Estimated
Sat 06:43:00 PM 9.2290 20.6971 348° North  Level Estimated
Sat 06:44:00 PM 9.3536 20.6711 348° North  Level Estimated
Sat 06:45:00 PM 9.4783 20.6450 348° North  Level Estimated
Sat 06:46:00 PM 9.6029 20.6189 348° North  Level Estimated
Sat 06:47:00 PM 9.7276 20.5928 348° North  Level Estimated
Sat 06:48:00 PM 9.8522 20.5667 348° North  Level Estimated
Sat 06:49:00 PM 9.9768 20.5405 348° North  Level Estimated
Sat 06:50:00 PM 10.1015 20.5143 348° North  Level Estimated
Sat 06:51:00 PM 10.2261 20.4881 348° North  Level Estimated
Sat 06:52:00 PM 10.3507 20.4619 348° North  Level Estimated
Sat 06:53:00 PM 10.4754 20.4357 348° North  Level Estimated
Sat 06:54:00 PM 10.6000 20.4094 348° North  Level Estimated
Sat 06:55:00 PM 10.7246 20.3831 348° North  Level Estimated
Sat 06:56:00 PM 10.8492 20.3568 348° North  Level Estimated
Sat 06:57:00 PM 10.9738 20.3305 348° North  Level Estimated
Sat 06:58:00 PM 11.0984 20.3042 348° North  Level Estimated
Sat 06:59:00 PM 11.2231 20.2778 348° North  Level Estimated
Sat 07:00:00 PM 11.3477 20.2514 348° North  Level Estimated
Sat 07:01:00 PM 11.4723 20.2250 348° North  Level Estimated
Sat 07:02:00 PM 11.5969 20.1986 348° North  Level Estimated
Sat 07:03:00 PM 11.7215 20.1721 348° North  Level Estimated
Sat 07:04:00 PM 11.8461 20.1456 348° North  Level Estimated
Sat 07:05:00 PM 11.9707 20.1191 348° North  Level Estimated
Sat 07:06:00 PM 12.0953 20.0926 348° North  Level Estimated
Sat 07:07:00 PM 12.2199 20.0660 348° North  Level Estimated
Sat 07:08:00 PM 12.3445 20.0394 348° North  Level Estimated
Sat 07:09:00 PM 12.4691 20.0128 348° North  Level Estimated
Sat 07:10:00 PM 12.5936 19.9862 348° North  Level Estimated
Sat 07:11:00 PM 12.7182 19.9595 348° North  Level Estimated
Sat 07:12:00 PM 12.8428 19.9328 348° North  Level Estimated
Sat 07:13:00 PM 12.9674 19.9061 348° North  Level Estimated
Sat 07:14:00 PM 13.0920 19.8794 348° North  Level Estimated
Sat 07:15:00 PM 13.2165 19.8526 348° North  Level Estimated
Sat 07:16:00 PM 13.3411 19.8258 348° North  Level Estimated
Sat 07:17:00 PM 13.4657 19.7990 348° North  Level Estimated
Sat 07:18:00 PM 13.5902 19.7722 348° North  Level Estimated
Sat 07:19:00 PM 13.7148 19.7453 348° North  Level Estimated
Sat 07:20:00 PM 13.8394 19.7184 348° North  Level Estimated
Sat 07:21:00 PM 13.9639 19.6915 348° North  Level Estimated
Sat 07:22:00 PM 14.0885 19.6645 348° North  Level Estimated
Sat 07:23:00 PM 14.2130 19.6375 348° North  Level Estimated
Sat 07:24:00 PM 14.3376 19.6105 348° North  Level Estimated
Sat 07:25:00 PM 14.4621 19.5834 348° North  Level Estimated
Sat 07:26:00 PM 14.5866 19.5564 348° North  Level Estimated
Sat 07:27:00 PM 14.7112 19.5292 348° North  Level Estimated
Sat 07:28:00 PM 14.8357 19.5021 348° North  Level Estimated
Sat 07:29:00 PM 14.9602 19.4749 348° North  Level Estimated
Sat 07:30:00 PM 15.0848 19.4477 348° North  Level Estimated
Sat 07:31:00 PM 15.2093 19.4205 348° North  Level Estimated
Sat 07:32:00 PM 15.3338 19.3932 348° North  Level Estimated
Sat 07:33:00 PM 15.4583 19.3659 348° North  Level Estimated
Sat 07:34:00 PM 15.5829 19.3386 348° North  Level Estimated
Sat 07:35:00 PM 15.7074 19.3112 348° North  Level Estimated
Sat 07:36:00 PM 15.8319 19.2838 348° North  Level Estimated
Sat 07:37:00 PM 15.9564 19.2563 348° North  Level Estimated
Sat 07:38:00 PM 16.0809 19.2289 348° North  Level Estimated
Sat 07:39:00 PM 16.2054 19.2014 348° North  Level Estimated
Sat 07:40:00 PM 16.3299 19.1738 348° North  Level Estimated
Sat 07:41:00 PM 16.4543 19.1462 348° North  Level Estimated
Sat 07:42:00 PM 16.5788 19.1186 348° North  Level Estimated
Sat 07:43:00 PM 16.7033 19.0910 348° North  Level Estimated
Sat 07:44:00 PM 16.8278 19.0633 348° North  Level Estimated
Sat 07:45:00 PM 16.9523 19.0356 348° North  Level Estimated
Sat 07:46:00 PM 17.0767 19.0078 348° North  Level Estimated
Sat 07:47:00 PM 17.2012 18.9800 348° North  Level Estimated
Sat 07:48:00 PM 17.3257 18.9522 348° North  Level Estimated
Sat 07:49:00 PM 17.4501 18.9243 348° North  Level Estimated
Sat 07:50:00 PM 17.5746 18.8964 348° North  Level Estimated
Sat 07:51:00 PM 17.6991 18.8685 348° North  Level Estimated
Sat 07:52:00 PM 17.8235 18.8405 348° North  Level Estimated
Sat 07:53:00 PM 17.9479 18.8125 348° North  Level Estimated
Sat 07:54:00 PM 18.0724 18.7844 348° North  Level Estimated
Sat 07:55:00 PM 18.1968 18.7563 348° North  Level Estimated
Sat 07:56:00 PM 18.3213 18.7282 348° North  Level Estimated
Sat 07:57:00 PM 18.4457 18.7000 348° North  Level Estimated
Sat 07:58:00 PM 18.5701 18.6718 348° North  Level Estimated
Sat 07:59:00 PM 18.6945 18.6435 348° North  Level Estimated
Sat 08:00:00 PM 18.8189 18.6152 348° North  Level Estimated
Sat 08:01:00 PM 18.9433 18.5869 348° North  Level Estimated
Sat 08:02:00 PM 19.0678 18.5585 348° North  Level Estimated
Sat 08:03:00 PM 19.1922 18.5301 348° North  Level Estimated
Sat 08:04:00 PM 19.3166 18.5016 348° North  Level Estimated
Sat 08:05:00 PM 19.4410 18.4730 348° North  Level Estimated
Sat 08:06:00 PM 19.5653 18.4445 348° North  Level Estimated
Sat 08:07:00 PM 19.6897 18.4159 348° North  Level Estimated
Sat 08:08:00 PM 19.8141 18.3872 348° North  Level Estimated
Sat 08:09:00 PM 19.9385 18.3585 348° North  Level Estimated
Sat 08:10:00 PM 20.0629 18.3298 348° North  Level Estimated
Sat 08:11:00 PM 20.1872 18.3010 348° North  Level Estimated
Sat 08:12:00 PM 20.3116 18.2722 348° North  Level Estimated
Sat 08:13:00 PM 20.4359 18.2433 348° North  Level Estimated
Sat 08:14:00 PM 20.5603 18.2144 348° North  Level Estimated
Sat 08:15:00 PM 20.6846 18.1854 348° North  Level Estimated
Sat 08:16:00 PM 20.8090 18.1564 348° North  Level Estimated
Sat 08:17:00 PM 20.9333 18.1273 348° North  Level Estimated
Sat 08:18:00 PM 21.0576 18.0982 348° North  Level Estimated
Sat 08:19:00 PM 21.1820 18.0690 348° North  Level Estimated
Sat 08:20:00 PM 21.3063 18.0398 348° North  Level Estimated
Sat 08:21:00 PM 21.4306 18.0105 348° North  Level Estimated
Sat 08:22:00 PM 21.5549 17.9812 348° North  Level Estimated
Sat 08:23:00 PM 21.6792 17.9519 348° North  Level Estimated
Sat 08:24:00 PM 21.8035 17.9224 348° North  Level Estimated
Sat 08:25:00 PM 21.9278 17.8930 348° North  Level Estimated
Sat 08:26:00 PM 22.0521 17.8635 348° North  Level Estimated
Sat 08:27:00 PM 22.1764 17.8339 348° North  Level Estimated
Sat 08:28:00 PM 22.3007 17.8043 348° North  Level Estimated
Sat 08:29:00 PM 22.4250 17.7746 348° North  Level Estimated
Sat 08:30:00 PM 22.5492 17.7449 348° North  Level Estimated
Sat 08:31:00 PM 22.6735 17.7151 348° North  Level Estimated
Sat 08:32:00 PM 22.7978 17.6852 348° North  Level Estimated
Sat 08:33:00 PM 22.9220 17.6553 348° North  Level Estimated
Sat 08:34:00 PM 23.0463 17.6254 347° North  Level Estimated
Sat 08:35:00 PM 23.1705 17.5954 347° North  Level Estimated
Sat 08:36:00 PM 23.2948 17.5653 347° North  Level Estimated
Sat 08:37:00 PM 23.4190 17.5352 347° North  Level Estimated
Sat 08:38:00 PM 23.5432 17.5051 347° North  Level Estimated
Sat 08:39:00 PM 23.6674 17.4748 347° North  Level Estimated
Sat 08:40:00 PM 23.7917 17.4445 347° North  Level Estimated
Sat 08:41:00 PM 23.9159 17.4142 347° North  Level Estimated
Sat 08:42:00 PM 24.0401 17.3838 347° North  Level Estimated
Sat 08:43:00 PM 24.1643 17.3533 347° North  Level Estimated
Sat 08:44:00 PM 24.2885 17.3228 347° North  Level Estimated
Sat 08:45:00 PM 24.4126 17.2922 347° North  Level Estimated
Sat 08:46:00 PM 24.5368 17.2616 347° North  Level Estimated
Sat 08:47:00 PM 24.6610 17.2309 347° North  Level Estimated
Sat 08:48:00 PM 24.7852 17.2001 347° North  Level Estimated
Sat 08:49:00 PM 24.9093 17.1693 347° North  Level Estimated
Sat 08:50:00 PM 25.0335 17.1385 347° North  Level Estimated
Sat 08:51:00 PM 25.1576 17.1075 347° North  Level Estimated
Sat 08:52:00 PM 25.2817 17.0765 347° North  Level Estimated
Sat 08:53:00 PM 25.4059 17.0454 347° North  Level Estimated
Sat 08:54:00 PM 25.5300 17.0143 347° North  Level Estimated
Sat 08:55:00 PM 25.6541 16.9831 347° North  Level Estimated
Sat 08:56:00 PM 25.7782 16.9518 347° North  Level Estimated
Sat 08:57:00 PM 25.9023 16.9205 347° North  Level Estimated
Sat 08:58:00 PM 26.0264 16.8891 347° North  Level Estimated
Sat 08:59:00 PM 26.1505 16.8576 347° North  Level Estimated
Sat 09:00:00 PM 26.2746 16.8261 347° North  Level Estimated
Sat 09:01:00 PM 26.3987 16.7945 347° North  Level Estimated
Sat 09:02:00 PM 26.5228 16.7628 347° North  Level Estimated
Sat 09:03:00 PM 26.6469 16.7311 347° North  Level Estimated
Sat 09:04:00 PM 26.7709 16.6993 347° North  Level Estimated
Sat 09:05:00 PM 26.8950 16.6674 347° North  Level Estimated
Sat 09:06:00 PM 27.0190 16.6355 347° North  Level Estimated
Sat 09:07:00 PM 27.1430 16.6035 347° North  Level Estimated
Sat 09:08:00 PM 27.2671 16.5714 347° North  Level Estimated
Sat 09:09:00 PM 27.3911 16.5392 347° North  Level Estimated
Sat 09:10:00 PM 27.5151 16.5070 347° North  Level Estimated
Sat 09:11:00 PM 27.6391 16.4747 347° North  Level Estimated
Sat 09:12:00 PM 27.7631 16.4423 347° North  Level Estimated
Sat 09:13:00 PM 27.8871 16.4098 347° North  Level Estimated
Sat 09:14:00 PM 28.0111 16.3773 347° North  Level Estimated
Sat 09:15:00 PM 28.1351 16.3447 347° North  Level Estimated
Sat 09:16:00 PM 28.2590 16.3121 347° North  Level Estimated
Sat 09:17:00 PM 28.3830 16.2793 347° North  Level Estimated
Sat 09:18:00 PM 28.5069 16.2465 347° North  Level Estimated
Sat 09:19:00 PM 28.6309 16.2136 347° North  Level Estimated
Sat 09:20:00 PM 28.7548 16.1806 347° North  Level Estimated
Sat 09:21:00 PM 28.8788 16.1475 347° North  Level Estimated
Sat 09:22:00 PM 29.0027 16.1144 347° North  Level Estimated
Sat 09:23:00 PM 29.1266 16.0812 347° North  Level Estimated
Sat 09:24:00 PM 29.2505 16.0479 347° North  Level Estimated
Sat 09:25:00 PM 29.3744 16.0145 347° North  Level Estimated
Sat 09:26:00 PM 29.4983 15.9810 347° North  Level Estimated
Sat 09:27:00 PM 29.6222 15.9475 347° North  Level Estimated
Sat 09:28:00 PM 29.7460 15.9139 347° North  Level Estimated
Sat 09:29:00 PM 29.8699 15.8802 347° North  Level Estimated
Sat 09:30:00 PM 29.9937 15.8464 347° North  Level Estimated
Sat 09:31:00 PM 30.1176 15.8125 347° North  Level Estimated
Sat 09:32:00 PM 30.2414 15.7785 347° North  Level Estimated
Sat 09:33:00 PM 30.3653 15.7445 347° North  Level Estimated
Sat 09:33:42 PM 32.5930 13.5990 347° North 459 528 36,000  Level FlightAware ADS-B
Sat 09:34:00 PM 30.4891 15.7104 347° North  Level Estimated
Sat 09:34:17 PM 32.6600 13.5880 352° North 460 529 36,000  Level FlightAware ADS-B
Sat 09:35:07 PM 32.7500 13.5730 352° North 460 529 36,000  Level FlightAware ADS-B
Sat 09:35:47 PM 32.8210 13.5610 352° North 460 529 36,000  Level FlightAware ADS-B
Sat 09:36:27 PM 32.9410 13.5410 352° North 457 526 36,000  Level FlightAware ADS-B
Sat 09:37:12 PM 33.0370 13.5220 351° North 459 528 36,000 282 Level FlightAware ADS-B
Sat 09:37:52 PM 33.1210 13.5060 351° North 457 526 36,400 918 Climbing FlightAware ADS-B
Sat 09:38:37 PM 33.2160 13.4870 351° North 452 520 37,300 1,059 Climbing FlightAware ADS-B
Sat 09:39:17 PM 33.2970 13.4710 351° North 450 518 37,900 494 Climbing FlightAware ADS-B
Sat 09:40:02 PM 33.3870 13.4540 351° North 452 520 38,000 71 Climbing FlightAware ADS-B
Sat 09:40:42 PM 33.4710 13.4370 350° North 454 522 38,000  Level FlightAware ADS-B
Sat 09:41:22 PM 33.5540 13.4210 351° North 454 522 38,000  Level FlightAware ADS-B
Sat 09:42:07 PM 33.6510 13.4020 351° North 454 522 38,000  Level FlightAware ADS-B
Sat 09:42:47 PM 33.7320 13.3860 351° North 455 524 38,000  Level FlightAware ADS-B
Sat 09:43:32 PM 33.8260 13.3680 351° North 455 524 38,000  Level FlightAware ADS-B
Sat 09:44:12 PM 33.9060 13.3520 351° North 453 521 38,000  Level FlightAware ADS-B
Sat 09:44:57 PM 34.0020 13.3330 351° North 454 522 38,000  Level FlightAware ADS-B
Sat 09:45:37 PM 34.0850 13.3160 350° North 453 521 38,000  Level FlightAware ADS-B
Sat 09:46:22 PM 34.1770 13.3020 353° North 461 531 38,000  Level FlightAware ADS-B
Sat 09:47:02 PM 34.2630 13.3000 359° North 462 532 38,000  Level FlightAware ADS-B
Sat 09:47:42 PM 34.3460 13.2980 359° North 459 528 38,000  Level FlightAware ADS-B
Sat 09:48:27 PM 34.4450 13.2950 359° North 456 525 38,000  Level FlightAware ADS-B
Sat 09:49:07 PM 34.5290 13.2920 358° North 455 524 38,000  Level FlightAware ADS-B
Sat 09:49:52 PM 34.6220 13.2890 358° North 456 525 38,000  Level FlightAware ADS-B
Sat 09:50:32 PM 34.7090 13.2860 358° North 456 525 38,000  Level FlightAware ADS-B
Sat 09:51:17 PM 34.8050 13.2830 359° North 457 526 38,000  Level FlightAware ADS-B
Sat 09:51:57 PM 34.8860 13.2810 359° North 457 526 38,000  Level FlightAware ADS-B
Sat 09:52:37 PM 34.9740 13.2780 358° North 460 529 38,000  Level FlightAware ADS-B
Sat 09:53:17 PM 35.0600 13.2750 358° North 461 531 38,000  Level FlightAware ADS-B
Sat 09:54:02 PM 35.1540 13.2720 359° North 460 529 38,000  Level FlightAware ADS-B
Sat 09:54:42 PM 35.2380 13.2700 359° North 461 531 38,000  Level FlightAware ADS-B
Sat 09:55:27 PM 35.3360 13.2660 358° North 460 529 38,000  Level FlightAware ADS-B
Sat 09:56:07 PM 35.4210 13.2640 359° North 460 529 38,000  Level FlightAware ADS-B
Sat 09:56:47 PM 35.5060 13.2610 358° North 459 528 38,000  Level FlightAware ADS-B
Sat 09:57:32 PM 35.6000 13.2580 359° North 457 526 38,000  Level FlightAware ADS-B
Sat 09:58:12 PM 35.6840 13.2550 358° North 455 524 38,000  Level FlightAware ADS-B
Sat 09:58:52 PM 35.7680 13.2530 359° North 455 524 38,000  Level FlightAware ADS-B
Sat 09:59:37 PM 35.8650 13.2500 359° North 455 524 38,000  Level FlightAware ADS-B
Sat 10:00:17 PM 35.9490 13.2470 358° North 455 524 38,000  Level FlightAware ADS-B
Sat 10:01:02 PM 36.0430 13.2440 359° North 457 526 38,000  Level FlightAware ADS-B
Sat 10:01:42 PM 36.1270 13.2410 358° North 456 525 38,000  Level FlightAware ADS-B
Sat 10:02:22 PM 36.2110 13.2380 358° North 455 524 38,000  Level FlightAware ADS-B
Sat 10:03:07 PM 36.3040 13.2350 359° North 456 525 38,000  Level FlightAware ADS-B
Sat 10:03:47 PM 36.3890 13.2320 358° North 461 531 38,000  Level FlightAware ADS-B
Sat 10:04:27 PM 36.4770 13.2300 359° North 463 533 38,000  Level FlightAware ADS-B
Sat 10:05:12 PM 36.5730 13.2260 358° North 463 533 38,000  Level FlightAware ADS-B
Sat 10:05:52 PM 36.6590 13.2240 359° North 465 535 38,000  Level FlightAware ADS-B
Sat 10:06:37 PM 36.7560 13.2200 358° North 462 532 38,000  Level FlightAware ADS-B
Sat 10:07:17 PM 36.8390 13.2180 359° North 457 526 38,000  Level FlightAware ADS-B
Sat 10:07:57 PM 36.9270 13.2150 358° North 454 522 38,000  Level FlightAware ADS-B
Sat 10:08:42 PM 37.0200 13.2020 354° North 444 511 38,000  Level FlightAware ADS-B
Sat 10:09:22 PM 37.0970 13.1870 351° North 444 511 38,000  Level FlightAware ADS-B
Sat 10:10:07 PM 37.1930 13.1690 352° North 442 509 38,000  Level FlightAware ADS-B
Sat 10:10:47 PM 37.2710 13.1550 352° North 445 512 38,000  Level FlightAware ADS-B
Sat 10:11:27 PM 37.3550 13.1390 351° North 444 511 38,000  Level FlightAware ADS-B
Sat 10:12:12 PM 37.4440 13.1230 352° North 440 506 38,000  Level FlightAware ADS-B
Sat 10:12:52 PM 37.5250 13.1070 351° North 442 509 38,000  Level FlightAware ADS-B
Sat 10:13:32 PM 37.6060 13.0920 352° North 448 516 38,000  Level FlightAware ADS-B
Sat 10:14:22 PM 37.7080 13.0730 352° North 451 519 38,000  Level FlightAware ADS-B
Sat 10:15:02 PM 37.7910 13.0570 351° North 448 516 38,000  Level FlightAware ADS-B
Sat 10:15:47 PM 37.8840 13.0390 351° North 444 511 38,000  Level FlightAware ADS-B
Sat 10:16:27 PM 37.9670 13.0240 352° North 445 512 38,000  Level FlightAware ADS-B
Sat 10:17:07 PM 38.0480 13.0080 351° North 447 514 38,000  Level FlightAware ADS-B
Sat 10:17:47 PM 38.1260 12.9930 351° North 448 516 38,000  Level FlightAware ADS-B
Sat 10:18:32 PM 38.2210 12.9750 352° North 446 513 38,000  Level FlightAware ADS-B
Sat 10:19:17 PM 38.3080 12.9580 351° North 439 505 38,000  Level FlightAware ADS-B
Sat 10:19:57 PM 38.3940 12.9420 352° North 438 504 38,000  Level FlightAware ADS-B
Sat 10:20:32 PM 38.4580 12.9290 351° North 435 501 38,000  Level FlightAware ADS-B
Sat 10:21:22 PM 38.5590 12.9100 352° North 435 501 38,000  Level FlightAware ADS-B
Sat 10:22:02 PM 38.6390 12.8940 351° North 437 503 38,000  Level FlightAware ADS-B
Sat 10:22:47 PM 38.7290 12.8770 352° North 422 486 38,000  Level FlightAware ADS-B
Sat 10:23:27 PM 38.8080 12.8620 352° North 426 490 38,000  Level FlightAware ADS-B
Sat 10:24:02 PM 38.8760 12.8480 351° North 425 489 38,000  Level FlightAware ADS-B
Sat 10:24:47 PM 38.9580 12.8320 351° North 424 488 38,000  Level FlightAware ADS-B
Sat 10:25:22 PM 39.0320 12.8180 352° North 428 493 38,000  Level FlightAware ADS-B
Sat 10:26:17 PM 39.1380 12.7970 351° North 428 493 38,000  Level FlightAware ADS-B
Sat 10:26:57 PM 39.2190 12.7810 351° North 428 493 38,000  Level FlightAware ADS-B
Sat 10:27:32 PM 39.2870 12.7680 352° North 429 494 38,000  Level FlightAware ADS-B
Sat 10:28:22 PM 39.3700 12.7510 351° North 433 498 38,000  Level FlightAware ADS-B
Sat 10:29:12 PM 39.4610 12.7330 351° North 431 496 38,000  Level FlightAware ADS-B
Sat 10:30:02 PM 39.5820 12.7090 351° North 430 495 38,000  Level FlightAware ADS-B
Sat 10:30:37 PM 39.6190 12.7010 351° North 429 494 38,000  Level FlightAware ADS-B
Sat 10:31:17 PM 39.7310 12.6790 351° North 430 495 38,000  Level FlightAware ADS-B
Sat 10:32:02 PM 39.8190 12.6620 352° North 424 488 38,000  Level FlightAware ADS-B
Sat 10:32:47 PM 39.8900 12.6470 351° North 420 483 38,000  Level FlightAware ADS-B
Sat 10:33:27 PM 39.9620 12.6330 352° North 420 483 38,000  Level FlightAware ADS-B
Sat 10:34:07 PM 40.0380 12.6180 351° North 417 480 38,000  Level FlightAware ADS-B
Sat 10:35:02 PM 40.1480 12.5950 351° North 405 466 38,000  Level FlightAware ADS-B
Sat 10:35:42 PM 40.2240 12.5800 351° North 399 459 38,000  Level FlightAware ADS-B
Sat 10:36:32 PM 40.3140 12.5620 351° North 399 459 38,000  Level FlightAware ADS-B
Sat 10:37:12 PM 40.3820 12.5470 350° North 399 459 38,000  Level FlightAware ADS-B
Sat 10:37:52 PM 40.4540 12.5330 352° North 398 458 38,000  Level FlightAware ADS-B
Sat 10:38:32 PM 40.5280 12.5180 351° North 397 457 38,000  Level FlightAware ADS-B
Sat 10:39:12 PM 40.6020 12.5030 351° North 396 456 38,000  Level FlightAware ADS-B
Sat 10:40:02 PM 40.6920 12.4840 351° North 395 455 38,000  Level FlightAware ADS-B
Sat 10:40:52 PM 40.7770 12.4670 351° North 395 455 38,000  Level FlightAware ADS-B
Sat 10:41:32 PM 40.8520 12.4510 351° North 394 453 38,000  Level FlightAware ADS-B
Sat 10:42:22 PM 40.9400 12.4330 351° North 391 450 38,000  Level FlightAware ADS-B
Sat 10:42:57 PM 41.0010 12.4200 351° North 391 450 38,000  Level FlightAware ADS-B
Sat 10:43:47 PM 41.0860 12.4020 351° North 390 449 38,000  Level FlightAware ADS-B
Sat 10:44:17 PM 41.1410 12.3910 351° North 390 449 38,000  Level FlightAware ADS-B
Sat 10:45:07 PM 41.2310 12.3720 351° North 391 450 38,000  Level FlightAware ADS-B
Sat 10:45:52 PM 41.3080 12.3560 351° North 392 451 38,000  Level FlightAware ADS-B
Sat 10:46:27 PM 41.3790 12.3410 351° North 393 452 38,000  Level FlightAware ADS-B
Sat 10:47:07 PM 41.4530 12.3250 351° North 391 450 38,000  Level FlightAware ADS-B
Sat 10:47:57 PM 41.5380 12.3080 351° North 391 450 38,000  Level FlightAware ADS-B
Sat 10:48:37 PM 41.6160 12.2910 351° North 389 448 38,000  Level FlightAware ADS-B
Sat 10:49:22 PM 41.6950 12.2740 351° North 389 448 38,000  Level FlightAware ADS-B
Sat 10:50:02 PM 41.7670 12.2530 348° North 386 444 38,000  Level FlightAware ADS-B
Sat 10:50:42 PM 41.8380 12.2320 348° North 387 445 38,000  Level FlightAware ADS-B
Sat 10:51:17 PM 41.8960 12.2150 348° North 386 444 38,000  Level FlightAware ADS-B
Sat 10:52:22 PM 42.0260 12.1870 351° North 385 443 38,000  Level FlightAware ADS-B
Sat 10:53:02 PM 42.0970 12.1780 355° North 384 442 38,000  Level FlightAware ADS-B
Sat 10:53:47 PM 42.1750 12.1680 355° North 382 440 38,000  Level FlightAware ADS-B
Sat 10:54:27 PM 42.2460 12.1590 355° North 382 440 38,000  Level FlightAware ADS-B
Sat 10:55:12 PM 42.3230 12.1500 355° North 383 441 38,000  Level FlightAware ADS-B
Sat 10:55:52 PM 42.3950 12.1410 355° North 381 438 38,000  Level FlightAware ADS-B
Sat 10:56:37 PM 42.4760 12.1300 354° North 379 436 38,000  Level FlightAware ADS-B
Sat 10:57:12 PM 42.5350 12.1230 355° North 382 440 38,000  Level FlightAware ADS-B
Sat 10:57:57 PM 42.6160 12.1120 354° North 384 442 38,000  Level FlightAware ADS-B
Sat 10:58:42 PM 42.6940 12.1020 355° North 384 442 38,000  Level FlightAware ADS-B
Sat 10:59:22 PM 42.7670 12.0930 355° North 383 441 38,000  Level FlightAware ADS-B
Sat 11:00:07 PM 42.8450 12.0830 355° North 383 441 38,000  Level FlightAware ADS-B
Sat 11:00:47 PM 42.9150 12.0740 355° North 384 442 38,000  Level FlightAware ADS-B
Sat 11:01:27 PM 42.9860 12.0650 355° North 385 443 38,000  Level FlightAware ADS-B
Sat 11:02:12 PM 43.0650 12.0550 355° North 385 443 38,000  Level FlightAware ADS-B
Sat 11:02:52 PM 43.1350 12.0450 354° North 384 442 38,000  Level FlightAware ADS-B
Sat 11:03:37 PM 43.2170 12.0350 355° North 384 442 38,000  Level FlightAware ADS-B
Sat 11:04:17 PM 43.2880 12.0250 354° North 384 442 38,000  Level FlightAware ADS-B
Sat 11:04:57 PM 43.3580 12.0160 355° North 385 443 38,000  Level FlightAware ADS-B
Sat 11:05:42 PM 43.4400 12.0050 354° North 385 443 38,000  Level FlightAware ADS-B
Sat 11:06:22 PM 43.5080 11.9960 355° North 385 443 38,000  Level FlightAware ADS-B
Sat 11:06:57 PM 43.5720 11.9880 355° North 384 442 38,000  Level FlightAware ADS-B
Sat 11:07:42 PM 43.6490 11.9780 355° North 384 442 38,000  Level FlightAware ADS-B
Sat 11:08:22 PM 43.7210 11.9680 354° North 384 442 38,000  Level FlightAware ADS-B
Sat 11:09:02 PM 43.7920 11.9590 355° North 385 443 38,000  Level FlightAware ADS-B
Sat 11:09:47 PM 43.8740 11.9480 354° North 385 443 38,000  Level FlightAware ADS-B
Sat 11:10:27 PM 43.9450 11.9380 354° North 385 443 38,000  Level FlightAware ADS-B
Sat 11:11:12 PM 44.0230 11.9280 355° North 387 445 38,000  Level FlightAware ADS-B
Sat 11:11:52 PM 44.0970 11.9180 354° North 387 445 38,000  Level FlightAware ADS-B
Sat 11:12:37 PM 44.1750 11.9070 354° North 386 444 38,000  Level FlightAware ADS-B
Sat 11:13:17 PM 44.2460 11.8980 355° North 386 444 38,000  Level FlightAware ADS-B
Sat 11:13:57 PM 44.3200 11.8880 354° North 387 445 38,000  Level FlightAware ADS-B
Sat 11:14:42 PM 44.3970 11.8770 354° North 388 447 38,000  Level FlightAware ADS-B
Sat 11:15:22 PM 44.4710 11.8670 354° North 388 447 38,000  Level FlightAware ADS-B
Sat 11:16:02 PM 44.5390 11.8580 355° North 388 447 38,000  Level FlightAware ADS-B
Sat 11:16:47 PM 44.6220 11.8470 355° North 387 445 38,000  Level FlightAware ADS-B
Sat 11:17:27 PM 44.6940 11.8370 354° North 387 445 38,000  Level FlightAware ADS-B
Sat 11:18:12 PM 44.7720 11.8260 354° North 387 445 38,000  Level FlightAware ADS-B
Sat 11:18:52 PM 44.8440 11.8160 354° North 386 444 38,000  Level FlightAware ADS-B
Sat 11:19:32 PM 44.9160 11.8060 354° North 385 443 38,000  Level FlightAware ADS-B
Sat 11:20:17 PM 44.9950 11.7950 354° North 386 444 38,000  Level FlightAware ADS-B
Sat 11:20:57 PM 45.0660 11.7850 354° North 385 443 38,000  Level FlightAware ADS-B
Sat 11:21:42 PM 45.1480 11.7740 355° North 386 444 38,000  Level FlightAware ADS-B
Sat 11:22:22 PM 45.2140 11.7650 355° North 386 444 38,000  Level FlightAware ADS-B
Sat 11:23:07 PM 45.2980 11.7530 354° North 387 445 38,000  Level FlightAware ADS-B
Sat 11:23:47 PM 45.3690 11.7430 354° North 386 444 38,000  Level FlightAware ADS-B
Sat 11:24:27 PM 45.4410 11.7330 354° North 386 444 38,000  Level FlightAware ADS-B
Sat 11:25:12 PM 45.5180 11.7220 354° North 387 445 38,000  Level FlightAware ADS-B
Sat 11:25:52 PM 45.5910 11.7110 354° North 387 445 38,000  Level FlightAware ADS-B
Sat 11:26:32 PM 45.6620 11.7010 354° North 385 443 38,000  Level FlightAware ADS-B
Sat 11:27:17 PM 45.7440 11.6900 355° North 384 442 38,000  Level FlightAware ADS-B
Sat 11:27:57 PM 45.8130 11.6800 354° North 382 440 38,000  Level FlightAware ADS-B
Sat 11:28:37 PM 45.8830 11.6700 354° North 382 440 38,000  Level FlightAware ADS-B
Sat 11:29:22 PM 45.9620 11.6580 354° North 382 440 38,000  Level FlightAware ADS-B
Sat 11:30:02 PM 46.0310 11.6480 354° North 382 440 38,000  Level FlightAware ADS-B
Sat 11:30:47 PM 46.1130 11.6360 354° North 382 440 38,000  Level FlightAware ADS-B
Sat 11:31:27 PM 46.1840 11.6260 354° North 383 441 38,000  Level FlightAware ADS-B
Sat 11:32:07 PM 46.2540 11.6160 354° North 384 442 38,000  Level FlightAware ADS-B
Sat 11:32:52 PM 46.3300 11.6050 354° North 384 442 38,000  Level FlightAware ADS-B
Sat 11:33:32 PM 46.4040 11.5940 354° North 386 444 38,000  Level FlightAware ADS-B
Sat 11:34:17 PM 46.4840 11.5820 354° North 388 447 38,000  Level FlightAware ADS-B
Sat 11:34:57 PM 46.5550 11.5720 354° North 389 448 38,000  Level FlightAware ADS-B
Sat 11:35:37 PM 46.6280 11.5610 354° North 391 450 38,000  Level FlightAware ADS-B
Sat 11:36:22 PM 46.7070 11.5500 355° North 389 448 38,000  Level FlightAware ADS-B
Sat 11:37:07 PM 46.7870 11.5380 354° North 391 450 38,000  Level FlightAware ADS-B
Sat 11:37:47 PM 46.8580 11.5180 349° North 388 447 38,000  Level FlightAware ADS-B
Sat 11:38:27 PM 46.9230 11.4730 335° Northwest 389 448 38,000  Level FlightAware ADS-B
Sat 11:39:12 PM 46.9960 11.4230 335° Northwest 391 450 38,000  Level FlightAware ADS-B
Sat 11:39:52 PM 47.0620 11.3780 335° Northwest 390 449 38,000  Level FlightAware ADS-B
Sat 11:40:32 PM 47.1260 11.3350 335° Northwest 390 449 38,000  Level FlightAware ADS-B
Sat 11:41:17 PM 47.2010 11.2830 335° Northwest 389 448 38,000  Level FlightAware ADS-B
Sat 11:41:57 PM 47.2660 11.2390 335° Northwest 391 450 38,000  Level FlightAware ADS-B
Sat 11:42:27 PM 47.3160 11.2040 335° Northwest 392 451 38,000  Level FlightAware ADS-B
Sat 11:43:07 PM 47.3810 11.1600 335° Northwest 392 451 38,000  Level FlightAware ADS-B
Sat 11:43:47 PM 47.4480 11.1130 335° Northwest 393 452 38,000  Level FlightAware ADS-B
Sat 11:44:32 PM 47.5210 11.0630 335° Northwest 395 455 38,000 -71 Level FlightAware ADS-B
Sat 11:45:12 PM 47.5870 11.0170 335° Northwest 394 453 37,900 -424 Descending FlightAware ADS-B
Sat 11:45:57 PM 47.6610 10.9650 335° Northwest 393 452 37,400 -706 Descending FlightAware ADS-B
Sat 11:46:37 PM 47.7250 10.9200 335° Northwest 393 452 36,900 -675 Descending FlightAware ADS-B
Sat 11:47:17 PM 47.7910 10.8730 334° Northwest 390 449 36,500 -847 Descending FlightAware ADS-B
Sat 11:48:02 PM 47.8660 10.8210 335° Northwest 396 456 35,700 -988 Descending FlightAware ADS-B
Sat 11:48:42 PM 47.9330 10.7740 335° Northwest 395 455 35,100 -988 Descending FlightAware ADS-B
Sat 11:49:27 PM 48.0070 10.7210 334° Northwest 390 449 34,300 -988 Descending FlightAware ADS-B
Sat 11:50:07 PM 48.0680 10.6780 335° Northwest 392 451 33,700 -988 Descending FlightAware ADS-B
Sat 11:50:52 PM 48.1460 10.6220 334° Northwest 380 437 32,900 -1,040 Descending FlightAware ADS-B
Sat 11:51:22 PM 48.1940 10.5880 335° Northwest 380 437 32,400 -675 Descending FlightAware ADS-B
Sat 11:52:12 PM 48.2750 10.5290 334° Northwest 380 437 32,000 -253 Descending FlightAware ADS-B
Sat 11:52:57 PM 48.3480 10.4770 335° Northwest 376 433 32,000 -776 Level FlightAware ADS-B
Sat 11:53:37 PM 48.4110 10.4320 335° Northwest 378 435 30,900 -1,843 Descending FlightAware ADS-B
Sat 11:55:17 PM 48.5630 10.3210 334° Northwest 373 429 27,700 -1,971 Descending FlightAware ADS-B
Sat 11:55:57 PM 48.6260 10.2760 335° Northwest 361 415 26,300 -1,976 Descending FlightAware ADS-B
Sat 11:56:42 PM 48.6900 10.2290 334° Northwest 356 410 24,900 -1,453 Descending FlightAware ADS-B
Sat 11:57:32 PM 48.7640 10.1740 334° Northwest 346 398 24,000 -568 Descending FlightAware ADS-B
Sat 11:58:17 PM 48.8360 10.1220 335° Northwest 346 398 24,000  Level FlightAware ADS-B
Sat 11:59:02 PM 48.9020 10.0730 334° Northwest 354 407 24,000  Level FlightAware ADS-B
Sat 11:59:42 PM 48.9600 10.0300 334° Northwest 356 410 24,000  Level FlightAware ADS-B
Sun 12:00:22 AM 49.0220 9.9840 334° Northwest 356 410 24,000 -316 Level FlightAware ADS-B
Sun 12:01:17 AM 49.0990 9.9270 334° Northwest 345 397 23,500 -1,104 Descending FlightAware ADS-B
Sun 12:02:27 AM 49.2000 9.8520 334° Northwest 341 392 21,700 -1,572 Descending FlightAware ADS-B
Sun 12:03:42 AM 49.3050 9.7730 334° Northwest 324 373 19,700 -1,614 Descending FlightAware ADS-B
Sun 12:04:52 AM 49.4000 9.7010 334° Northwest 323 372 17,800 -1,636 Descending FlightAware ADS-B
Sun 12:05:32 AM 49.4550 9.6600 334° Northwest 318 366 16,700 -1,650 Descending FlightAware ADS-B
Sun 12:06:12 AM 49.5090 9.6190 334° Northwest 314 361 15,600 -1,553 Descending FlightAware ADS-B
Sun 12:06:57 AM 49.5670 9.5740 333° Northwest 312 359 14,500 -1,553 Descending FlightAware ADS-B
Sun 12:07:37 AM 49.6170 9.5370 334° Northwest 309 356 13,400 -1,624 Descending FlightAware ADS-B
Sun 12:08:22 AM 49.6750 9.4920 333° Northwest 306 352 12,200 -1,575 Descending FlightAware ADS-B
Sun 12:08:57 AM 49.7190 9.4590 334° Northwest 305 351 11,300 -675 Descending FlightAware ADS-B
Sun 12:09:42 AM 49.7700 9.4180 333° Northwest 305 351 11,300 -867 Level FlightAware ADS-B
Sun 12:10:27 AM 49.8290 9.3740 334° Northwest 273 314 10,000 -918 Descending FlightAware ADS-B
Sun 12:11:07 AM 49.8730 9.3400 334° Northwest 272 313 10,000  Level FlightAware ADS-B
Sun 12:11:47 AM 49.9220 9.3120 340° North 278 320 10,000  Level FlightAware ADS-B
Sun 12:12:17 AM 49.9580 9.3250 13° North 256 295 10,000  Level FlightAware ADS-B
Sun 12:13:02 AM 50.0090 9.3480 16° North 253 291 10,000  Level FlightAware ADS-B
Sun 12:13:42 AM 50.0520 9.3690 17° North 247 284 10,000  Level FlightAware ADS-B
Sun 12:14:12 AM 50.0810 9.4010 35° Northeast 267 307 10,000  Level FlightAware ADS-B
Sun 12:14:52 AM 50.1040 9.4720 63° Northeast 270 311 10,000  Level FlightAware ADS-B
Sun 12:15:17 AM 50.1200 9.5120 58° Northeast 257 296 10,000  Level FlightAware ADS-B
Sun 12:15:32 AM 50.1360 9.5240 26° Northeast 251 289 10,000  Level FlightAware ADS-B
Sun 12:16:02 AM 50.1660 9.5090 342° North 235 270 10,000 -267 Level FlightAware ADS-B
Sun 12:16:17 AM 50.1730 9.4870 296° West 230 265 9,800 -900 Descending FlightAware ADS-B
Sun 12:16:42 AM 50.1810 9.4500 289° West 220 253 9,400 -873 Descending FlightAware ADS-B
Sun 12:17:12 AM 50.1890 9.4020 285° West 207 238 9,000 -900 Descending FlightAware ADS-B
Sun 12:17:42 AM 50.1970 9.3600 287° West 201 231 8,500 -873 Descending FlightAware ADS-B
Sun 12:18:07 AM 50.2030 9.3250 285° West 219 252 8,200 -764 Descending FlightAware ADS-B
Sun 12:18:37 AM 50.2010 9.2750 266° West 222 255 7,800 -982 Descending FlightAware ADS-B
Sun 12:19:02 AM 50.1940 9.2430 251° West 219 252 7,300 -1,309 Descending FlightAware ADS-B
Sun 12:19:32 AM 50.1820 9.1920 250° West 219 252 6,600 -1,100 Descending FlightAware ADS-B
Sun 12:20:02 AM 50.1720 9.1480 250° West 211 243 6,200 -655 Descending FlightAware ADS-B
Sun 12:20:27 AM 50.1640 9.1150 249° West 199 229 6,000 -720 Descending FlightAware ADS-B
Sun 12:20:52 AM 50.1570 9.0840 251° West 196 226 5,600 -480 Descending FlightAware ADS-B
Sun 12:21:17 AM 50.1500 9.0520 251° West 196 226 5,600  Level FlightAware ADS-B
Sun 12:23:00 AM 50.0729 8.7332 249° West  Level Estimated

Login

Don't have an account? Register now (free) for customized features, flight alerts, and more!